CPX235 Details

Departure: Phoenix Sky Harbor International Airport (KPHX)
Arrival: Miami International Airport (KMIA) at N/A
Route: ECLPS1 PHASE ELP FST J86 LEV Y290 BLVNS Y290 BAGGS SSCOT5
Notes:


Current Weather Information
KPHX 230651Z 09005KT 10SM SCT250 21/02 A2992 RMK AO2 SLPNO T02110017 403220150
KMIA 230653Z 00000KT 10SM FEW250 27/23 A2997 RMK AO2 SLP149 T02670228